INFORMACIÓN METAR y TAF
METAR FOR ESSA
ADDS - METARS form results

(0140 UTC 15 August 2020)
Data provider http://aviationweather.gov/metar/data/
 
METAR text: ESSA 150120Z 19004KT CAVOK 14/14 Q1013 NOSIG
Conditions at: ESSA (STOCKHOLM/ARLAND, SE) observed 0120 UTC 15 August 2020
Temperature: 14.0°C (57°F)
Dewpoint: 14.0°C (57°F) [RH = 100%]
Pressure (altimeter): 29.91 inches Hg (1013.0 mb)
Winds: from the S (190 degrees) at 5 MPH (4 knots; 2.1 m/s)
Visibility: 6 or more miles (10+ km)
Ceiling: ceiling and visibility are OK
Clouds: unknown
Weather: no significant weather observed at this time

METAR text: ESSA 150050Z 17003KT CAVOK 15/13 Q1013 NOSIG
Conditions at: ESSA (STOCKHOLM/ARLAND, SE) observed 0050 UTC 15 August 2020
Temperature: 15.0°C (59°F)
Dewpoint: 13.0°C (55°F) [RH = 88%]
Pressure (altimeter): 29.91 inches Hg (1013.0 mb)
Winds: from the S (170 degrees) at 3 MPH (3 knots; 1.5 m/s)
Visibility: 6 or more miles (10+ km)
Ceiling: ceiling and visibility are OK
Clouds: unknown
Weather: no significant weather observed at this time

Forecast for: ESSA (STOCKHOLM/ARLAND, SE)
Text: TAF ESSA 142330Z 1500/1524 20004KT CAVOK
Forecast period: 0000 UTC 15 August 2020 to 0000 UTC 16 August 2020
Forecast type: FROM: standard forecast or significant change
Winds: from the SSW (200 degrees) at 5 MPH (4 knots; 2.1 m/s)
Visibility: 6 or more miles (10+ km)
Ceiling: unknown
Clouds: missing
Weather: NSW  (no significant weather)

MAPA DE AEROPUERTO

INFORMACIÓN DE PISTA
Pista 01L Longitud 10830 ft Ancho 148 ft
Elevación 98 ft Umbral desplazado 0 ft Rumbo de pista 10
Pista 19R Longitud 10830 ft Ancho 148 ft
Elevación 118 ft Umbral desplazado 0 ft Rumbo de pista 190
Pista 01R Longitud 8201 ft Ancho 148 ft
Elevación 137 ft Umbral desplazado 0 ft Rumbo de pista 10
Pista 19L Longitud 8201 ft Ancho 148 ft
Elevación 98 ft Umbral desplazado 0 ft Rumbo de pista 190
Pista 08 Longitud 8202 ft Ancho 148 ft
Elevación 108 ft Umbral desplazado 0 ft Rumbo de pista 76
Pista 26 Longitud 8202 ft Ancho 148 ft
Elevación 124 ft Umbral desplazado 0 ft Rumbo de pista 256

FRECUANCIAS DEL AEROPUERTO
Tipo APP Nombre STOCKHOLM Frecuencia 123.75 MHZ
Tipo ATIS Nombre ATIS Frecuencia 119 MHZ
Tipo CLD Nombre CLNC DEL Frecuencia 121.825 MHZ
Tipo GND Nombre GND Frecuencia 121.7 MHZ
Tipo PMSV Nombre MET OFFICE Frecuencia 122.6 MHZ
Tipo TWR Nombre TWR Frecuencia 118.5 MHZ

RADIO AYUDAS DEL AEROPUERTO
Tipo VOR-DME Nombre Arlanda Frecuencia 116000 KHZ
Tipo NDB Nombre Arlanda Frecuencia 352 KHZ
Tipo NDB Nombre Arlanda Frecuencia 360 KHZ
Tipo NDB Nombre Arlanda Frecuencia 404 KHZ
Tipo NDB Nombre Arlanda Frecuencia 370 KHZ